Terminal Aerodrome Forecast
Issued by NWS North Platte, NE

Home | Current Version | Previous Version | Graphics & Text | Print | Product List | Glossary On
Versions: 1 2 3 4 5 6 7 8 9 10 11 12 13
000
FTUS43 KLBF 240520
TAFVTN
TAF
KVTN 240520Z 2406/2506 19009KT P6SM VCTS BKN100CB
     FM241100 20008KT P6SM BKN200
     FM241700 23008KT P6SM FEW250
     FM250200 26007KT P6SM FEW250=

USA.gov is the U.S. government's official web portal to all federal, state and local government web resources and services.